Time;durP1;ratioP1;P1;durP2;ratioP2;P2;SDS_P1;SDS_P2;PMS_P1;PMS_P2;Temp;Humidity;BMP_temperature;BMP_pressure;BME280_temperature;BME280_humidity;BME280_pressure;Samples;Min_cycle;Max_cycle;Signal;HPM_P1;HPM_P2
2024/04/15 00:01:55;;;;;;;10.33;2.43;;;9.60;1.00;;;;;;5452163;26;20241;-67
2024/04/15 00:04:22;;;;;;;5.50;2.00;;;9.50;1.00;;;;;;5454253;26;20268;-67
2024/04/15 00:06:53;;;;;;;4.30;1.90;;;9.50;1.00;;;;;;5454583;26;20329;-67
2024/04/15 00:09:24;;;;;;;6.30;2.07;;;9.50;1.00;;;;;;5457254;26;20253;-67
2024/04/15 00:11:54;;;;;;;8.03;2.70;;;9.50;1.00;;;;;;5438801;26;20324;-67
2024/04/15 00:14:22;;;;;;;6.23;2.47;;;9.50;1.00;;;;;;5449610;25;20295;-67
2024/04/15 00:16:52;;;;;;;6.90;2.60;;;9.50;1.00;;;;;;5460454;26;20236;-66
2024/04/15 00:19:20;;;;;;;6.33;2.20;;;9.40;1.00;;;;;;5458042;26;20232;-68
2024/04/15 00:21:50;;;;;;;6.93;2.17;;;9.40;1.00;;;;;;5453015;26;20301;-66
2024/04/15 00:24:17;;;;;;;6.63;2.20;;;9.30;1.00;;;;;;5453978;26;20287;-67
2024/04/15 00:26:50;;;;;;;5.87;2.40;;;9.30;1.00;;;;;;5438667;26;20779;-67
2024/04/15 00:29:18;;;;;;;8.00;2.50;;;9.20;1.00;;;;;;5459281;26;20279;-67
2024/04/15 00:31:48;;;;;;;12.50;2.60;;;9.20;1.00;;;;;;5451105;25;20242;-67
2024/04/15 00:34:16;;;;;;;8.47;2.57;;;9.20;1.00;;;;;;5444161;26;20252;-67
2024/04/15 00:36:46;;;;;;;5.20;2.37;;;9.10;1.00;;;;;;5450683;26;20288;-67
2024/04/15 00:39:14;;;;;;;6.27;2.17;;;9.20;1.00;;;;;;5456301;26;20283;-67
2024/04/15 00:41:45;;;;;;;6.17;2.70;;;9.20;1.00;;;;;;5460294;26;20287;-67
2024/04/15 00:44:17;;;;;;;4.67;2.20;;;9.10;1.00;;;;;;5459137;26;20253;-67
2024/04/15 00:46:48;;;;;;;6.30;2.67;;;9.20;1.00;;;;;;5446206;26;20225;-66
2024/04/15 00:49:15;;;;;;;11.30;2.70;;;9.10;1.00;;;;;;5448830;26;20835;-67
2024/04/15 00:51:46;;;;;;;5.17;2.07;;;9.10;1.00;;;;;;5439970;26;20295;-67
2024/04/15 00:54:13;;;;;;;6.43;2.30;;;9.20;1.00;;;;;;5455356;25;20945;-67
2024/04/15 00:56:44;;;;;;;9.30;2.83;;;9.10;1.00;;;;;;5458090;26;20751;-67
2024/04/15 00:59:11;;;;;;;2.70;1.87;;;9.10;1.00;;;;;;5454269;26;20288;-67
2024/04/15 01:01:45;;;;;;;6.03;2.30;;;9.10;1.00;;;;;;5461652;26;20287;-67
2024/04/15 01:04:12;;;;;;;5.00;2.10;;;9.10;1.00;;;;;;5458077;26;20329;-67
2024/04/15 01:06:43;;;;;;;5.27;2.10;;;9.20;1.00;;;;;;5462425;25;20342;-67
2024/04/15 01:09:11;;;;;;;10.27;2.37;;;9.20;1.00;;;;;;5457267;26;20269;-68
2024/04/15 01:11:42;;;;;;;8.33;2.30;;;9.20;1.00;;;;;;5449874;25;20258;-67
2024/04/15 01:14:10;;;;;;;8.30;2.30;;;9.10;1.00;;;;;;5446711;26;20654;-67
2024/04/15 01:16:41;;;;;;;7.33;2.60;;;9.10;1.00;;;;;;5464866;26;20236;-67
2024/04/15 01:19:11;;;;;;;6.87;2.40;;;9.10;1.00;;;;;;5452783;26;20253;-68
2024/04/15 01:21:43;;;;;;;6.83;2.37;;;9.10;1.00;;;;;;5449505;26;20603;-67
2024/04/15 01:24:13;;;;;;;11.63;2.63;;;9.10;1.00;;;;;;5453522;26;20584;-67
2024/04/15 01:26:48;;;;;;;11.67;2.67;;;9.10;1.00;;;;;;5449329;26;20296;-67
2024/04/15 01:29:17;;;;;;;8.73;2.33;;;9.00;1.00;;;;;;5455047;26;20295;-67
2024/04/15 01:31:48;;;;;;;6.43;2.30;;;8.90;1.00;;;;;;5459228;26;20264;-64
2024/04/15 01:34:16;;;;;;;8.17;2.50;;;8.90;1.00;;;;;;5467678;26;20332;-67
2024/04/15 01:36:46;;;;;;;10.57;2.60;;;8.90;1.00;;;;;;5467085;26;20257;-67
2024/04/15 01:39:16;;;;;;;4.97;1.93;;;9.00;1.00;;;;;;5453020;26;20726;-67
2024/04/15 01:41:46;;;;;;;9.20;2.17;;;8.90;1.00;;;;;;5459350;26;20307;-67
2024/04/15 01:44:13;;;;;;;6.03;2.30;;;9.00;1.00;;;;;;5449582;26;20256;-68
2024/04/15 01:46:43;;;;;;;5.63;2.27;;;8.90;1.00;;;;;;5455630;26;20271;-67
2024/04/15 01:49:11;;;;;;;7.90;2.60;;;8.90;1.00;;;;;;5459430;26;20297;-67
2024/04/15 01:51:41;;;;;;;14.57;3.37;;;8.90;1.00;;;;;;5451288;26;20261;-67
2024/04/15 01:54:09;;;;;;;14.00;2.77;;;8.90;1.00;;;;;;5465675;26;20299;-67
2024/04/15 01:56:44;;;;;;;8.10;2.87;;;8.80;1.60;;;;;;5461600;25;20629;-68
2024/04/15 01:59:11;;;;;;;9.97;2.60;;;8.80;16.70;;;;;;5449422;26;20731;-67
2024/04/15 02:01:41;;;;;;;9.00;2.90;;;8.80;21.70;;;;;;5459152;26;20271;-67
2024/04/15 02:04:09;;;;;;;8.40;2.40;;;8.80;22.70;;;;;;5456238;26;20280;-67
2024/04/15 02:06:39;;;;;;;7.80;2.63;;;8.80;33.00;;;;;;5450282;26;20253;-67
2024/04/15 02:09:07;;;;;;;7.00;2.50;;;8.70;27.00;;;;;;5449575;26;20257;-67
2024/04/15 02:11:39;;;;;;;6.43;2.40;;;8.70;39.70;;;;;;5456118;25;20291;-67
2024/04/15 02:14:09;;;;;;;13.90;2.97;;;8.70;51.20;;;;;;5456072;26;20254;-67
2024/04/15 02:16:40;;;;;;;6.90;2.60;;;8.70;66.80;;;;;;5448673;26;20268;-67
2024/04/15 02:19:07;;;;;;;6.90;2.53;;;8.70;63.00;;;;;;5409668;26;20288;-68
2024/04/15 02:21:39;;;;;;;9.57;2.40;;;8.70;70.40;;;;;;5450103;26;20295;-67
2024/04/15 02:24:07;;;;;;;10.37;3.00;;;8.60;77.10;;;;;;5453424;26;20656;-67
2024/04/15 02:26:37;;;;;;;9.57;2.60;;;8.60;84.80;;;;;;5456463;26;20321;-67
2024/04/15 02:29:05;;;;;;;11.23;2.67;;;8.60;86.50;;;;;;5447758;26;20257;-67
2024/04/15 02:31:38;;;;;;;10.67;2.50;;;8.60;89.10;;;;;;5468905;26;20700;-67
2024/04/15 02:34:05;;;;;;;8.90;2.63;;;8.60;89.70;;;;;;5445368;26;20301;-67
2024/04/15 02:36:36;;;;;;;11.00;2.63;;;8.60;94.60;;;;;;5455819;26;20648;-67
2024/04/15 02:39:03;;;;;;;9.20;2.30;;;8.60;97.70;;;;;;5457849;26;20253;-68
2024/04/15 02:41:33;;;;;;;7.03;2.80;;;8.50;99.90;;;;;;5456730;25;20250;-67
2024/04/15 02:44:01;;;;;;;11.40;2.73;;;8.50;99.90;;;;;;5465902;26;20265;-67
2024/04/15 02:46:31;;;;;;;11.93;3.27;;;8.50;99.90;;;;;;5449910;26;20258;-67
2024/04/15 02:49:01;;;;;;;11.83;3.07;;;8.50;99.90;;;;;;5455547;26;20728;-67
2024/04/15 02:51:34;;;;;;;8.23;2.90;;;8.50;99.90;;;;;;5454980;26;20257;-67
2024/04/15 02:54:04;;;;;;;10.10;2.70;;;8.40;99.90;;;;;;5457073;26;20299;-67
2024/04/15 02:56:36;;;;;;;13.83;3.20;;;8.40;99.90;;;;;;5451341;26;20288;-68
2024/04/15 02:59:04;;;;;;;15.83;3.10;;;8.40;99.90;;;;;;5451545;26;20296;-68
2024/04/15 03:01:34;;;;;;;11.77;3.40;;;8.40;99.90;;;;;;5451963;26;20300;-68
2024/04/15 03:04:04;;;;;;;14.63;3.27;;;8.40;99.90;;;;;;5441335;26;20294;-68
2024/04/15 03:06:35;;;;;;;18.07;3.83;;;8.40;99.90;;;;;;5458419;26;20292;-68
2024/04/15 03:09:02;;;;;;;14.70;3.40;;;8.40;99.90;;;;;;5455252;26;20280;-68
2024/04/15 03:11:32;;;;;;;14.27;3.50;;;8.30;99.90;;;;;;5455871;26;20299;-68
2024/04/15 03:14:00;;;;;;;11.87;4.00;;;8.30;99.90;;;;;;5441822;26;20334;-68
2024/04/15 03:16:30;;;;;;;14.33;3.33;;;8.30;99.90;;;;;;5456055;26;20297;-67
2024/04/15 03:18:57;;;;;;;10.60;3.47;;;8.30;99.90;;;;;;5446390;26;20257;-67
2024/04/15 03:21:30;;;;;;;15.83;3.37;;;8.30;99.90;;;;;;5458015;26;21305;-68
2024/04/15 03:23:58;;;;;;;29.00;3.87;;;8.20;99.90;;;;;;5446945;26;20604;-68
2024/04/15 03:26:28;;;;;;;11.37;3.83;;;8.20;99.90;;;;;;5464768;25;20293;-68
2024/04/15 03:28:55;;;;;;;15.17;3.40;;;8.20;99.90;;;;;;5458130;26;20284;-68
2024/04/15 03:31:25;;;;;;;15.83;4.30;;;8.20;99.90;;;;;;5453322;26;20268;-68
2024/04/15 03:33:53;;;;;;;10.13;3.20;;;8.10;99.90;;;;;;5459847;26;20256;-67
2024/04/15 03:36:23;;;;;;;18.53;4.37;;;8.10;99.90;;;;;;5461110;26;20357;-68
2024/04/15 03:38:56;;;;;;;14.87;4.17;;;8.10;99.90;;;;;;5450340;26;20302;-67
2024/04/15 03:41:26;;;;;;;10.77;3.70;;;8.10;99.90;;;;;;5444032;26;20663;-67
2024/04/15 03:43:56;;;;;;;12.80;4.13;;;8.10;99.90;;;;;;5457751;26;20281;-68
2024/04/15 03:46:24;;;;;;;31.10;5.20;;;8.10;99.90;;;;;;5456843;26;20313;-68
2024/04/15 03:48:54;;;;;;;14.07;4.20;;;8.10;99.90;;;;;;5441961;26;20739;-68
2024/04/15 03:51:21;;;;;;;13.90;4.07;;;8.10;99.90;;;;;;5445957;26;20303;-68
2024/04/15 03:53:52;;;;;;;23.47;4.80;;;8.10;99.90;;;;;;5454257;26;20255;-68
2024/04/15 03:56:23;;;;;;;15.67;4.43;;;8.00;99.90;;;;;;5447340;26;20260;-67
2024/04/15 03:58:53;;;;;;;16.20;4.60;;;8.00;99.90;;;;;;5455666;25;20233;-68
2024/04/15 04:01:21;;;;;;;18.33;4.07;;;8.00;99.90;;;;;;5452092;26;20241;-68
2024/04/15 04:03:51;;;;;;;14.93;4.73;;;8.00;99.90;;;;;;5450722;26;20295;-68
2024/04/15 04:06:19;;;;;;;16.10;4.87;;;8.00;99.90;;;;;;5453588;26;20320;-68
2024/04/15 04:08:49;;;;;;;20.83;4.67;;;8.00;99.90;;;;;;5454092;26;20257;-68
2024/04/15 04:11:16;;;;;;;17.10;4.63;;;8.00;99.90;;;;;;5462811;26;20260;-67
2024/04/15 04:13:49;;;;;;;11.10;4.23;;;7.90;99.90;;;;;;5446984;26;20326;-67
2024/04/15 04:16:16;;;;;;;19.00;4.60;;;8.00;99.90;;;;;;5462693;26;20643;-67
2024/04/15 04:18:47;;;;;;;16.03;4.87;;;7.90;99.90;;;;;;5463440;26;20287;-68
2024/04/15 04:21:15;;;;;;;20.77;4.57;;;7.90;99.90;;;;;;5449744;26;20269;-68
2024/04/15 04:23:45;;;;;;;16.67;4.10;;;7.90;99.90;;;;;;5455373;26;21001;-68
2024/04/15 04:26:12;;;;;;;14.67;4.93;;;7.90;99.90;;;;;;5449480;26;20257;-67
2024/04/15 04:28:42;;;;;;;17.50;4.40;;;7.80;99.90;;;;;;5449511;26;20237;-66
2024/04/15 04:31:12;;;;;;;12.27;4.33;;;7.80;99.90;;;;;;5450945;26;20285;-68
2024/04/15 04:33:42;;;;;;;14.97;4.03;;;7.80;99.90;;;;;;5447976;25;20257;-68
2024/04/15 04:36:10;;;;;;;13.73;4.23;;;7.70;99.90;;;;;;5461664;26;20295;-68
2024/04/15 04:38:40;;;;;;;15.57;4.53;;;7.60;99.90;;;;;;5455648;25;20253;-68
2024/04/15 04:41:08;;;;;;;15.90;4.37;;;7.60;99.90;;;;;;5455421;25;20266;-68
2024/04/15 04:43:38;;;;;;;10.50;3.60;;;7.60;99.90;;;;;;5454576;26;20708;-67
2024/04/15 04:46:09;;;;;;;18.60;4.13;;;7.50;99.90;;;;;;5451272;26;20233;-68
2024/04/15 04:48:42;;;;;;;14.93;4.23;;;7.50;99.90;;;;;;5450693;26;20312;-67
2024/04/15 04:51:11;;;;;;;15.77;3.73;;;7.40;99.90;;;;;;5457955;26;20257;-68
2024/04/15 04:53:41;;;;;;;17.80;4.70;;;7.40;99.90;;;;;;5459085;25;20296;-67
2024/04/15 04:56:09;;;;;;;11.57;3.93;;;7.40;99.90;;;;;;5464184;25;20256;-68
2024/04/15 04:58:39;;;;;;;14.20;4.30;;;7.30;99.90;;;;;;5452950;26;20289;-68
2024/04/15 05:01:09;;;;;;;16.90;4.33;;;7.30;99.90;;;;;;5452690;26;20245;-67
2024/04/15 05:03:43;;;;;;;18.67;4.27;;;7.30;99.90;;;;;;5442913;25;20300;-68
2024/04/15 05:06:11;;;;;;;12.43;3.90;;;7.30;99.90;;;;;;5453227;26;20306;-68
2024/04/15 05:08:42;;;;;;;16.77;4.40;;;7.30;99.90;;;;;;5437841;26;20298;-67
2024/04/15 05:11:10;;;;;;;23.00;4.77;;;7.40;99.90;;;;;;5440815;26;20320;-68
2024/04/15 05:13:40;;;;;;;19.30;4.90;;;7.30;99.90;;;;;;5452171;26;20569;-68
2024/04/15 05:16:09;;;;;;;13.87;4.47;;;7.40;99.90;;;;;;5450425;26;20245;-67
2024/04/15 05:18:43;;;;;;;16.53;4.57;;;7.40;99.90;;;;;;5460905;26;20272;-68
2024/04/15 05:21:13;;;;;;;15.50;4.57;;;7.40;99.90;;;;;;5456766;26;20253;-68
2024/04/15 05:23:43;;;;;;;18.20;4.83;;;7.40;99.90;;;;;;5460923;25;20268;-67
2024/04/15 05:26:10;;;;;;;12.40;4.17;;;7.40;99.90;;;;;;5446223;26;20248;-67
2024/04/15 05:28:40;;;;;;;15.63;4.90;;;7.40;99.90;;;;;;5435967;26;20248;-67
2024/04/15 05:31:08;;;;;;;23.73;5.57;;;7.40;99.90;;;;;;5446826;26;20275;-67
2024/04/15 05:33:38;;;;;;;24.53;4.80;;;7.50;99.90;;;;;;5442374;26;20261;-67
2024/04/15 05:36:08;;;;;;;18.87;4.90;;;7.50;99.90;;;;;;5457719;26;20311;-67
2024/04/15 05:38:38;;;;;;;17.57;5.13;;;7.50;99.90;;;;;;5458102;26;20315;-66
2024/04/15 05:41:06;;;;;;;24.57;5.80;;;7.60;99.90;;;;;;5453132;26;20283;-67
2024/04/15 05:43:39;;;;;;;28.50;6.20;;;7.70;99.90;;;;;;5452267;26;20229;-66
2024/04/15 05:46:06;;;;;;;22.00;5.70;;;7.90;99.90;;;;;;5453650;26;20267;-67
2024/04/15 05:48:36;;;;;;;17.87;5.63;;;8.00;99.90;;;;;;5463096;26;20427;-67
2024/04/15 05:51:04;;;;;;;23.90;5.30;;;8.10;99.90;;;;;;5460635;26;20257;-67
2024/04/15 05:53:37;;;;;;;20.50;4.83;;;8.30;99.90;;;;;;5461710;25;20316;-67
2024/04/15 05:56:05;;;;;;;20.33;5.80;;;8.40;99.90;;;;;;5444892;26;21227;-67
2024/04/15 05:58:35;;;;;;;24.53;5.33;;;8.50;99.90;;;;;;5452168;26;20260;-67
2024/04/15 06:01:02;;;;;;;25.73;5.23;;;8.60;99.90;;;;;;5453480;26;20810;-68
2024/04/15 06:03:33;;;;;;;21.63;5.80;;;8.70;99.90;;;;;;5453314;26;20857;-68
2024/04/15 06:06:02;;;;;;;23.73;6.00;;;8.70;99.90;;;;;;5448868;26;20599;-67
2024/04/15 06:08:32;;;;;;;23.97;6.00;;;8.80;99.90;;;;;;5452568;26;20652;-67
2024/04/15 06:11:02;;;;;;;22.53;5.10;;;9.00;99.90;;;;;;5448484;26;20287;-67
2024/04/15 06:13:32;;;;;;;15.87;5.10;;;9.00;99.90;;;;;;5457572;26;20304;-67
2024/04/15 06:16:00;;;;;;;13.20;4.97;;;9.10;99.90;;;;;;5463161;26;20294;-67
2024/04/15 06:18:30;;;;;;;21.17;5.23;;;9.20;99.90;;;;;;5452062;26;20254;-67
2024/04/15 06:20:57;;;;;;;22.73;4.93;;;9.30;99.90;;;;;;5466110;26;20257;-67
2024/04/15 06:23:27;;;;;;;23.97;5.23;;;9.30;99.90;;;;;;5444430;26;20330;-67
2024/04/15 06:25:58;;;;;;;25.40;5.10;;;9.40;99.90;;;;;;5458219;25;20260;-67
2024/04/15 06:28:28;;;;;;;20.27;5.20;;;9.50;99.90;;;;;;5449966;26;20233;-67
2024/04/15 06:30:58;;;;;;;21.07;5.40;;;9.60;99.90;;;;;;5455136;25;20261;-67
2024/04/15 06:33:25;;;;;;;18.50;5.23;;;9.90;99.90;;;;;;5440185;26;20895;-67
2024/04/15 06:35:56;;;;;;;21.43;5.53;;;9.90;99.90;;;;;;5444510;26;20264;-67
2024/04/15 06:38:23;;;;;;;16.00;4.73;;;10.10;99.90;;;;;;5457709;26;20253;-66
2024/04/15 06:40:53;;;;;;;23.80;5.40;;;10.40;99.90;;;;;;5445105;26;20237;-66
2024/04/15 06:43:21;;;;;;;21.23;5.20;;;10.70;99.90;;;;;;5459930;26;20275;-67
2024/04/15 06:45:56;;;;;;;15.70;5.30;;;10.70;99.90;;;;;;5448448;26;20249;-67
2024/04/15 06:48:23;;;;;;;17.33;5.20;;;10.70;99.90;;;;;;5477800;26;21040;-67
2024/04/15 06:50:53;;;;;;;18.17;4.77;;;10.60;99.90;;;;;;5447464;26;20616;-67
2024/04/15 06:53:21;;;;;;;15.97;4.77;;;10.50;99.90;;;;;;5460016;26;20264;-67
2024/04/15 06:55:51;;;;;;;23.43;5.27;;;10.50;99.90;;;;;;5453939;26;20283;-67
2024/04/15 06:58:20;;;;;;;17.90;4.77;;;10.40;99.90;;;;;;5450098;26;20235;-67
2024/04/15 07:00:53;;;;;;;20.73;5.23;;;10.50;99.90;;;;;;5454063;26;20253;-66
2024/04/15 07:03:20;;;;;;;18.63;4.60;;;10.40;99.90;;;;;;5452939;26;20305;-66
2024/04/15 07:05:51;;;;;;;14.53;4.50;;;10.30;99.90;;;;;;5447649;26;20279;-66
2024/04/15 07:08:19;;;;;;;14.50;4.27;;;10.30;99.90;;;;;;5458281;26;20283;-67
2024/04/15 07:10:50;;;;;;;10.27;3.90;;;10.30;99.90;;;;;;5451970;26;20245;-66
2024/04/15 07:13:17;;;;;;;13.03;3.63;;;10.30;99.90;;;;;;5451952;26;20237;-66
2024/04/15 07:15:48;;;;;;;10.80;3.67;;;10.60;99.90;;;;;;5460685;26;20303;-66
2024/04/15 07:18:18;;;;;;;10.90;3.80;;;10.90;99.90;;;;;;5451500;26;20283;-66
2024/04/15 07:20:48;;;;;;;10.23;3.67;;;11.00;99.90;;;;;;5458613;25;20372;-67
2024/04/15 07:23:16;;;;;;;15.73;4.03;;;11.00;99.90;;;;;;5463471;26;20240;-66
2024/04/15 07:25:50;;;;;;;18.97;4.23;;;11.00;99.90;;;;;;5458622;26;20277;-66
2024/04/15 07:28:17;;;;;;;19.10;3.80;;;11.00;99.90;;;;;;5452593;26;20233;-66
2024/04/15 07:30:47;;;;;;;10.03;3.53;;;11.10;99.90;;;;;;5465649;26;20806;-66
2024/04/15 07:33:17;;;;;;;10.50;3.93;;;11.20;99.90;;;;;;5454165;26;20249;-66
2024/04/15 07:35:55;;;;;;;9.10;3.70;;;11.30;99.90;;;;;;5456027;26;20760;-66
2024/04/15 07:38:23;;;;;;;14.73;4.50;;;11.30;99.90;;;;;;5449817;26;20256;-66
2024/04/15 07:40:54;;;;;;;12.97;4.30;;;11.30;99.90;;;;;;5443987;26;20241;-66
2024/04/15 07:43:21;;;;;;;10.40;3.97;;;11.40;99.90;;;;;;5452702;26;20230;-67
2024/04/15 07:45:52;;;;;;;16.07;4.53;;;11.40;99.90;;;;;;5453067;26;20823;-66
2024/04/15 07:48:22;;;;;;;8.53;4.03;;;11.40;99.90;;;;;;5454290;25;20257;-66
2024/04/15 07:50:52;;;;;;;15.73;4.20;;;11.20;99.90;;;;;;5445079;26;20258;-66
2024/04/15 07:53:20;;;;;;;16.47;4.53;;;11.10;99.90;;;;;;5457780;26;20259;-66
2024/04/15 07:55:50;;;;;;;12.37;4.43;;;11.10;30.00;;;;;;5458769;26;20293;-66
2024/04/15 07:58:17;;;;;;;13.37;4.10;;;11.10;22.80;;;;;;5457385;26;20233;-66
2024/04/15 08:00:48;;;;;;;15.90;4.90;;;11.00;14.60;;;;;;5448756;26;20262;-66
2024/04/15 08:03:15;;;;;;;12.70;4.20;;;10.80;24.70;;;;;;5458498;26;20261;-66
2024/04/15 08:05:48;;;;;;;19.70;4.30;;;10.80;38.00;;;;;;5450751;26;20771;-66
2024/04/15 08:08:16;;;;;;;12.40;3.97;;;10.90;24.50;;;;;;5459500;26;20253;-66
2024/04/15 08:10:46;;;;;;;13.93;3.80;;;10.90;1.00;;;;;;5457559;26;20263;-65
2024/04/15 08:13:14;;;;;;;15.30;4.07;;;11.00;1.00;;;;;;5458582;26;20274;-67
2024/04/15 08:15:45;;;;;;;9.97;3.27;;;11.20;1.00;;;;;;5443158;26;20326;-67
2024/04/15 08:18:13;;;;;;;16.10;3.97;;;11.30;1.00;;;;;;5459387;26;20651;-66
2024/04/15 08:20:43;;;;;;;15.80;3.83;;;11.30;1.00;;;;;;5459671;25;20264;-66
2024/04/15 08:23:13;;;;;;;8.40;3.30;;;11.30;1.00;;;;;;5460804;25;20256;-66
2024/04/15 08:25:43;;;;;;;7.97;2.97;;;11.50;1.00;;;;;;5473795;26;20245;-65
2024/04/15 08:28:10;;;;;;;12.37;3.37;;;12.00;1.00;;;;;;5449083;26;20352;-66
2024/04/15 08:30:41;;;;;;;17.93;3.17;;;12.80;1.00;;;;;;5464080;25;20283;-66
2024/04/15 08:33:08;;;;;;;10.43;3.07;;;12.90;1.00;;;;;;5449715;26;20257;-67
2024/04/15 08:35:39;;;;;;;12.60;2.80;;;12.90;77.50;;;;;;5456470;26;20255;-66
2024/04/15 08:38:07;;;;;;;11.53;2.80;;;13.00;1.00;;;;;;5450459;26;20302;-66
2024/04/15 08:40:40;;;;;;;7.57;2.47;;;12.70;99.90;;;;;;5463962;26;20258;-66
2024/04/15 08:43:08;;;;;;;13.90;2.60;;;12.40;33.00;;;;;;5456043;26;20279;-66
2024/04/15 08:45:41;;;;;;;12.03;2.80;;;12.40;1.00;;;;;;5448221;26;20244;-66
2024/04/15 08:48:15;;;;;;;11.03;2.60;;;12.20;99.90;;;;;;5454527;25;21575;-66
2024/04/15 08:50:45;;;;;;;8.53;2.77;;;11.90;1.00;;;;;;5466312;26;20302;-66
2024/04/15 08:53:12;;;;;;;6.87;2.90;;;11.70;1.00;;;;;;5447869;26;20324;-66
2024/04/15 08:55:45;;;;;;;8.80;3.33;;;11.50;1.00;;;;;;5455529;26;20240;-65
2024/04/15 08:58:13;;;;;;;17.10;3.70;;;11.50;1.00;;;;;;5450641;26;20241;-66
2024/04/15 09:00:44;;;;;;;6.13;3.03;;;11.70;1.00;;;;;;5455430;26;20260;-66
2024/04/15 09:03:13;;;;;;;9.80;3.10;;;12.10;1.00;;;;;;5458893;26;20317;-66
2024/04/15 09:05:43;;;;;;;13.63;3.33;;;12.40;1.00;;;;;;5434963;26;20266;-66
2024/04/15 09:08:11;;;;;;;8.63;3.37;;;12.60;1.00;;;;;;5453767;26;21533;-66
2024/04/15 09:10:41;;;;;;;9.93;3.20;;;12.90;1.00;;;;;;5454831;26;20332;-66
2024/04/15 09:13:11;;;;;;;9.80;3.33;;;13.00;99.90;;;;;;5448237;26;20564;-66
2024/04/15 09:15:41;;;;;;;12.67;3.60;;;12.90;1.00;;;;;;5456313;26;20248;-67
2024/04/15 09:18:09;;;;;;;8.90;3.57;;;12.90;80.50;;;;;;5440237;26;20304;-66
2024/04/15 09:20:39;;;;;;;14.40;3.33;;;12.80;1.00;;;;;;5451650;26;20243;-67
2024/04/15 09:23:24;;;;;;;9.30;3.60;;;12.80;99.90;;;;;;5449995;26;20257;-66
2024/04/15 09:25:54;;;;;;;9.43;3.50;;;12.80;37.30;;;;;;5458576;25;20241;-66
2024/04/15 09:28:25;;;;;;;10.43;3.30;;;12.80;1.00;;;;;;5452935;26;20327;-66
2024/04/15 09:30:55;;;;;;;10.37;3.13;;;12.80;1.00;;;;;;5450855;26;20253;-67
2024/04/15 09:33:25;;;;;;;8.90;2.83;;;12.70;99.90;;;;;;5447448;26;20799;-66
2024/04/15 09:35:55;;;;;;;7.10;3.20;;;12.80;1.00;;;;;;5452612;26;20245;-66
2024/04/15 09:38:27;;;;;;;15.17;2.37;;;13.00;1.00;;;;;;5454819;26;20877;-66
2024/04/15 09:40:58;;;;;;;8.67;2.60;;;13.50;19.00;;;;;;5455489;26;20632;-66
2024/04/15 09:43:30;;;;;;;11.50;2.63;;;13.50;99.90;;;;;;5460227;26;20736;-66
2024/04/15 09:46:02;;;;;;;14.00;2.50;;;13.50;99.90;;;;;;5464317;26;20244;-66
2024/04/15 09:48:31;;;;;;;8.63;2.00;;;13.20;1.00;;;;;;5462018;26;20284;-66
2024/04/15 09:51:08;;;;;;;10.13;2.43;;;12.80;1.00;;;;;;5461579;25;20264;-66
2024/04/15 09:53:38;;;;;;;9.60;3.07;;;12.40;1.00;;;;;;5456900;25;20290;-66
2024/04/15 09:56:15;;;;;;;5.63;2.40;;;12.30;17.10;;;;;;5451455;26;20298;-66
2024/04/15 09:58:51;;;;;;;11.67;2.90;;;12.30;1.00;;;;;;5466787;26;20232;-65
2024/04/15 10:01:24;;;;;;;9.53;2.80;;;12.10;1.00;;;;;;5469901;26;20259;-66
2024/04/15 10:03:52;;;;;;;13.90;2.77;;;12.00;99.90;;;;;;5454996;26;20282;-66
2024/04/15 10:06:48;;;;;;;6.73;2.57;;;12.00;1.00;;;;;;5458490;26;20344;-66
2024/04/15 10:09:17;;;;;;;6.63;2.60;;;12.00;1.00;;;;;;5473138;26;20357;-66
2024/04/15 10:11:48;;;;;;;10.27;2.80;;;12.00;94.90;;;;;;5448437;26;20257;-66
2024/04/15 10:14:18;;;;;;;6.33;2.53;;;12.20;99.90;;;;;;5441707;26;20685;-66
2024/04/15 10:16:50;;;;;;;7.93;2.77;;;12.50;99.90;;;;;;5452702;26;20249;-65
2024/04/15 10:19:23;;;;;;;6.17;2.27;;;12.50;1.00;;;;;;5464172;26;20722;-67
2024/04/15 10:21:54;;;;;;;11.90;2.70;;;12.60;1.00;;;;;;5445180;26;20361;-67
2024/04/15 10:24:22;;;;;;;7.67;2.83;;;12.60;99.90;;;;;;5453776;25;20762;-67
2024/04/15 10:26:52;;;;;;;7.97;3.20;;;12.30;99.90;;;;;;5452992;26;20593;-67
2024/04/15 10:29:25;;;;;;;9.13;2.73;;;12.20;1.00;;;;;;5463867;26;20775;-67
2024/04/15 10:31:58;;;;;;;5.37;3.10;;;12.10;1.00;;;;;;5454024;26;20318;-67
2024/04/15 10:34:27;;;;;;;5.83;2.77;;;11.90;1.00;;;;;;5457309;26;20276;-68
2024/04/15 10:36:58;;;;;;;4.97;3.33;;;12.20;1.00;;;;;;5448033;26;20297;-68
2024/04/15 10:39:27;;;;;;;7.50;3.10;;;12.40;1.00;;;;;;5469457;25;20310;-67
2024/04/15 10:41:58;;;;;;;15.37;3.17;;;12.70;1.00;;;;;;5458444;25;20298;-68
2024/04/15 10:44:28;;;;;;;8.63;3.33;;;12.60;99.90;;;;;;5453335;26;20256;-67
2024/04/15 10:47:01;;;;;;;6.83;3.73;;;12.50;1.00;;;;;;5454847;26;20771;-67
2024/04/15 10:49:29;;;;;;;6.33;3.70;;;12.40;1.00;;;;;;5451118;26;20378;-67
2024/04/15 10:51:59;;;;;;;9.90;4.20;;;12.40;1.00;;;;;;5461734;26;20253;-68
2024/04/15 10:54:26;;;;;;;8.40;3.60;;;12.50;1.00;;;;;;5451949;25;20256;-67
2024/04/15 10:56:57;;;;;;;6.60;3.20;;;12.40;1.00;;;;;;5468434;26;20291;-68
2024/04/15 10:59:27;;;;;;;8.93;3.67;;;12.40;1.00;;;;;;5447644;26;20284;-68
2024/04/15 11:01:57;;;;;;;12.43;3.60;;;12.80;1.00;;;;;;5455184;25;20275;-67
2024/04/15 11:04:28;;;;;;;13.70;3.17;;;13.20;99.90;;;;;;5445947;26;20739;-67
2024/04/15 11:06:59;;;;;;;12.70;3.13;;;12.90;99.90;;;;;;5453966;26;20339;-68
2024/04/15 11:09:27;;;;;;;5.67;3.37;;;12.60;99.90;;;;;;5445452;25;20304;-67
2024/04/15 11:11:57;;;;;;;5.73;3.60;;;12.40;1.00;;;;;;5446340;26;20253;-67
2024/04/15 11:14:27;;;;;;;10.00;3.50;;;12.40;1.00;;;;;;5458254;26;20260;-67
2024/04/15 11:16:57;;;;;;;4.00;3.07;;;12.20;1.00;;;;;;5442475;26;20268;-67
2024/04/15 11:19:25;;;;;;;7.40;3.60;;;12.00;1.00;;;;;;5463847;26;20622;-66
2024/04/15 11:22:04;;;;;;;4.33;3.80;;;11.80;23.20;;;;;;5450009;26;20284;-64
2024/04/15 11:24:35;;;;;;;7.27;3.50;;;11.60;76.10;;;;;;5454339;26;20268;-65
2024/04/15 11:27:10;;;;;;;5.23;3.30;;;11.40;96.90;;;;;;5464585;25;20312;-65
2024/04/15 11:30:02;;;;;;;7.97;3.97;;;11.10;99.90;;;;;;5460558;25;20345;-64
2024/04/15 11:32:34;;;;;;;7.83;3.67;;;10.90;99.90;;;;;;5460345;26;20268;-64
2024/04/15 11:35:03;;;;;;;5.33;3.20;;;10.80;99.90;;;;;;5440739;26;20292;-64
2024/04/15 11:37:33;;;;;;;12.37;3.63;;;10.80;99.90;;;;;;5448854;26;20820;-64
2024/04/15 11:40:04;;;;;;;13.27;3.63;;;10.80;99.90;;;;;;5451295;26;20253;-64
2024/04/15 11:42:37;;;;;;;7.17;3.10;;;10.90;99.90;;;;;;5467012;25;20626;-64
2024/04/15 11:45:11;;;;;;;2.83;2.63;;;11.00;99.90;;;;;;5453214;26;20260;-64
2024/04/15 11:47:42;;;;;;;7.70;2.67;;;11.20;99.90;;;;;;5465267;26;20286;-65
2024/04/15 11:50:10;;;;;;;6.10;2.60;;;11.30;99.90;;;;;;5454861;26;20296;-64
2024/04/15 11:52:41;;;;;;;5.23;2.43;;;11.40;99.90;;;;;;5443699;26;20317;-64
2024/04/15 11:55:16;;;;;;;7.67;2.43;;;11.50;99.90;;;;;;5444426;26;20608;-65
2024/04/15 11:57:46;;;;;;;6.27;2.30;;;11.40;74.30;;;;;;5456841;26;20306;-64
2024/04/15 12:00:17;;;;;;;8.13;2.27;;;11.30;15.60;;;;;;5442247;26;20279;-64
2024/04/15 12:02:51;;;;;;;9.53;2.47;;;11.20;70.30;;;;;;5449714;25;20293;-64
2024/04/15 12:05:18;;;;;;;8.13;2.10;;;11.10;96.00;;;;;;5450366;26;20352;-64
2024/04/15 12:07:49;;;;;;;4.53;2.20;;;11.20;83.90;;;;;;5451893;26;20564;-63
2024/04/15 12:10:18;;;;;;;7.97;2.10;;;11.30;91.30;;;;;;5454786;26;20742;-64
2024/04/15 12:12:48;;;;;;;5.50;1.80;;;11.40;73.60;;;;;;5431169;26;20375;-63
2024/04/15 12:15:18;;;;;;;8.97;1.80;;;11.40;73.00;;;;;;5485344;26;20257;-63
2024/04/15 12:17:48;;;;;;;2.57;1.90;;;11.30;58.40;;;;;;5452624;26;20249;-63
2024/04/15 12:20:16;;;;;;;9.37;2.67;;;11.20;83.20;;;;;;5453380;26;20257;-65
2024/04/15 12:22:46;;;;;;;5.60;2.27;;;11.20;99.90;;;;;;5447748;26;20277;-63
2024/04/15 12:25:14;;;;;;;4.57;2.40;;;11.10;99.90;;;;;;5465063;26;20272;-64
2024/04/15 12:27:45;;;;;;;5.70;2.63;;;10.90;99.90;;;;;;5464697;25;20247;-63
2024/04/15 12:30:12;;;;;;;8.57;2.10;;;10.70;99.90;;;;;;5450323;26;20273;-64
2024/04/15 12:32:47;;;;;;;2.03;1.87;;;10.00;56.90;;;;;;5462555;25;20590;-66
2024/04/15 12:35:15;;;;;;;4.00;1.83;;;8.50;65.60;;;;;;5451943;26;20255;-65
2024/04/15 12:37:45;;;;;;;2.63;1.90;;;7.80;99.90;;;;;;5457001;26;20236;-64
2024/04/15 12:40:13;;;;;;;2.40;1.73;;;7.40;99.90;;;;;;5456914;26;20256;-64
2024/04/15 12:42:43;;;;;;;1.77;1.67;;;7.30;99.90;;;;;;5457721;25;20330;-64
2024/04/15 12:45:15;;;;;;;4.03;1.87;;;7.20;99.90;;;;;;5451200;26;20347;-65
2024/04/15 12:47:48;;;;;;;3.20;1.63;;;7.10;99.90;;;;;;5455453;25;20332;-64
2024/04/15 12:50:16;;;;;;;6.37;2.07;;;7.10;99.90;;;;;;5457651;26;20309;-64
2024/04/15 12:52:46;;;;;;;7.30;1.87;;;7.00;99.90;;;;;;5456522;26;20244;-63
2024/04/15 12:55:14;;;;;;;4.47;2.07;;;7.10;99.90;;;;;;5457367;26;20383;-64
2024/04/15 12:57:44;;;;;;;5.03;1.90;;;7.10;99.90;;;;;;5457219;26;20338;-64
2024/04/15 13:00:12;;;;;;;2.30;1.90;;;7.10;99.90;;;;;;5456024;26;20299;-64
2024/04/15 13:02:42;;;;;;;5.00;1.87;;;7.10;99.90;;;;;;5447963;26;20257;-63
2024/04/15 13:05:13;;;;;;;4.53;2.10;;;7.20;99.90;;;;;;5447198;26;20284;-63